createdAt,value
2022-10-17T00:04:56.647Z,142.30
2022-10-17T00:09:58.919Z,131.67
2022-10-17T00:15:04.101Z,124.63
2022-10-17T00:20:07.068Z,122.03
2022-10-17T00:25:09.646Z,126.17
2022-10-17T00:30:14.906Z,111.10
2022-10-17T00:35:17.317Z,112.63
2022-10-17T00:40:19.932Z,119.93
2022-10-17T00:45:24.587Z,125.17
2022-10-17T00:50:28.187Z,112.30
2022-10-17T00:55:37.025Z,96.83
2022-10-17T01:00:40.119Z,82.27
2022-10-17T01:05:42.918Z,87.97
2022-10-17T01:11:13.244Z,88.93
2022-10-17T01:16:26.521Z,124.03
2022-10-17T01:21:55.225Z,92.03
2022-10-17T01:27:11.179Z,87.43
2022-10-17T01:32:37.152Z,87.77
2022-10-17T01:43:03.717Z,89.50
2022-10-17T01:48:17.575Z,88.87
2022-10-17T01:53:31.798Z,85.37
2022-10-17T01:58:40.325Z,85.10
2022-10-17T02:03:45.186Z,82.20
2022-10-17T02:08:51.548Z,73.67
2022-10-17T02:14:16.183Z,72.90
2022-10-17T02:19:46.050Z,100.07
2022-10-17T02:25:09.016Z,78.33
2022-10-17T02:30:19.139Z,71.53
2022-10-17T02:35:25.205Z,75.47
2022-10-17T02:40:30.440Z,72.40
2022-10-17T02:45:36.253Z,68.00
2022-10-17T02:50:52.783Z,72.60
2022-10-17T02:56:02.647Z,70.67
2022-10-17T03:01:07.703Z,68.10
2022-10-17T03:06:10.884Z,81.03
2022-10-17T03:11:13.226Z,76.77
2022-10-17T03:16:15.767Z,76.67
2022-10-17T03:21:19.450Z,81.50
2022-10-17T03:26:22.036Z,76.43
2022-10-17T03:31:24.690Z,72.13
2022-10-17T03:36:28.830Z,76.17
2022-10-17T03:41:31.690Z,73.33
2022-10-17T03:46:34.135Z,64.37
2022-10-17T03:51:37.043Z,75.13
2022-10-17T03:56:44.811Z,75.33
2022-10-17T04:01:50.708Z,64.80
2022-10-17T04:06:54.463Z,59.87
2022-10-17T04:11:57.218Z,61.50
2022-10-17T04:17:00.050Z,60.70
2022-10-17T04:22:04.107Z,59.37
2022-10-17T04:27:10.270Z,55.07
2022-10-17T04:32:17.208Z,51.43
2022-10-17T04:37:24.216Z,56.10
2022-10-17T04:42:29.963Z,53.67
2022-10-17T04:47:32.908Z,59.30
2022-10-17T04:52:37.577Z,64.73
2022-10-17T04:57:40.094Z,64.83
2022-10-17T05:02:50.851Z,66.23
2022-10-17T05:07:53.432Z,68.70
2022-10-17T05:12:59.618Z,61.93
2022-10-17T05:18:07.442Z,63.57
2022-10-17T05:23:10.755Z,58.67
2022-10-17T05:28:16.972Z,85.47
2022-10-17T05:33:19.487Z,81.27
2022-10-17T05:38:22.148Z,98.83
2022-10-17T05:43:26.292Z,86.57
2022-10-17T05:48:29.074Z,78.97
2022-10-17T05:53:33.580Z,91.10
2022-10-17T05:58:50.348Z,86.33
2022-10-17T06:04:11.299Z,95.67
2022-10-17T06:09:14.073Z,89.07
2022-10-17T06:14:21.940Z,112.63
2022-10-17T06:19:28.519Z,114.03
2022-10-17T06:24:31.715Z,147.17
2022-10-17T06:29:37.688Z,141.17
2022-10-17T06:34:41.506Z,126.57
2022-10-17T06:39:44.934Z,124.60
2022-10-17T06:44:54.320Z,91.87
2022-10-17T06:50:28.927Z,72.60
2022-10-17T06:55:43.992Z,75.07
2022-10-17T07:01:10.709Z,63.67
2022-10-17T07:06:14.242Z,64.50
2022-10-17T07:11:20.992Z,53.37
2022-10-17T07:16:26.768Z,63.47
2022-10-17T07:21:42.229Z,54.40
2022-10-17T07:26:47.029Z,53.83
2022-10-17T07:31:52.038Z,50.07
2022-10-17T07:36:54.657Z,58.07
2022-10-17T07:41:58.830Z,62.43
2022-10-17T07:47:01.376Z,57.17
2022-10-17T07:52:04.628Z,61.23
2022-10-17T07:57:07.313Z,49.80
2022-10-17T08:02:20.902Z,50.13
2022-10-17T08:07:28.374Z,47.30
2022-10-17T08:12:34.288Z,49.13
2022-10-17T08:17:38.153Z,55.43
2022-10-17T08:22:40.561Z,48.97
2022-10-17T08:27:42.914Z,52.80
2022-10-17T08:32:45.434Z,43.50
2022-10-17T08:37:48.353Z,50.07
2022-10-17T08:43:15.205Z,45.10
2022-10-17T08:48:21.653Z,45.87
2022-10-17T08:53:39.478Z,42.60
2022-10-17T08:58:41.865Z,40.03
2022-10-17T09:04:21.269Z,38.23
2022-10-17T09:09:44.519Z,42.30
2022-10-17T09:15:17.644Z,36.80
2022-10-17T09:20:32.849Z,38.50
2022-10-17T09:25:45.187Z,36.20
2022-10-17T09:30:55.699Z,34.30
2022-10-17T09:35:59.331Z,33.37
2022-10-17T09:41:02.847Z,35.13
2022-10-17T09:46:27.062Z,31.93
2022-10-17T09:51:31.709Z,30.90
2022-10-17T09:56:58.085Z,32.17
2022-10-17T10:02:09.784Z,33.90
2022-10-17T10:07:13.150Z,31.85
2022-10-17T10:12:37.550Z,28.02
2022-10-17T10:17:41.970Z,26.70
2022-10-17T10:22:44.270Z,33.63
2022-10-17T10:27:47.561Z,25.75
2022-10-17T10:32:50.360Z,24.35
2022-10-17T10:37:58.415Z,26.45
2022-10-17T10:43:05.383Z,29.60
2022-10-17T10:48:21.714Z,21.75
2022-10-17T10:53:48.115Z,25.63
2022-10-17T10:58:55.551Z,22.08
2022-10-17T11:04:06.648Z,25.75
2022-10-17T11:09:32.959Z,22.65
2022-10-17T11:14:48.173Z,23.73
2022-10-17T11:20:01.058Z,23.88
2022-10-17T11:25:12.673Z,22.65
2022-10-17T11:30:16.036Z,23.65
2022-10-17T11:35:23.894Z,22.60
2022-10-17T11:40:38.641Z,20.80
2022-10-17T11:45:48.629Z,20.27
2022-10-17T11:56:47.226Z,21.27
2022-10-17T12:01:56.170Z,21.35
2022-10-17T12:07:26.797Z,19.25
2022-10-17T12:12:32.302Z,21.13
2022-10-17T12:17:39.301Z,25.40
2022-10-17T12:22:47.857Z,22.08
2022-10-17T12:27:51.191Z,18.60
2022-10-17T12:33:31.122Z,17.95
2022-10-17T12:38:33.519Z,23.15
2022-10-17T12:43:38.961Z,23.27
2022-10-17T12:48:44.345Z,20.58
2022-10-17T12:53:47.003Z,20.38
2022-10-17T12:58:51.381Z,22.35
2022-10-17T13:03:56.030Z,39.67
2022-10-17T13:09:24.372Z,27.58
2022-10-17T13:14:27.544Z,20.50
2022-10-17T13:19:39.509Z,26.77
2022-10-17T13:24:42.032Z,17.35
2022-10-17T13:29:44.693Z,18.35
2022-10-17T13:34:47.016Z,19.88
2022-10-17T13:39:56.559Z,17.02
2022-10-17T13:45:00.885Z,17.92
2022-10-17T13:50:12.765Z,19.02
2022-10-17T13:55:23.699Z,20.25
2022-10-17T14:00:26.291Z,24.15
2022-10-17T14:05:28.843Z,28.65
2022-10-17T14:10:37.499Z,17.20
2022-10-17T14:15:46.430Z,18.48
2022-10-17T14:26:21.404Z,21.23
2022-10-17T14:31:25.616Z,22.63
2022-10-17T14:36:42.053Z,22.08
2022-10-17T14:41:45.911Z,20.02
2022-10-17T14:46:52.957Z,27.33
2022-10-17T14:52:18.663Z,26.35
2022-10-17T14:57:43.619Z,22.08
2022-10-17T15:02:47.414Z,33.58
2022-10-17T15:07:54.031Z,23.70
2022-10-17T15:12:59.122Z,23.95
2022-10-17T15:18:14.758Z,22.10
2022-10-17T15:23:17.059Z,24.20
2022-10-17T15:28:19.420Z,30.20
2022-10-17T15:33:21.815Z,23.25
2022-10-17T15:38:24.135Z,29.17
2022-10-17T15:43:26.560Z,31.77
2022-10-17T15:48:31.689Z,21.88
2022-10-17T15:53:34.109Z,28.58
2022-10-17T15:58:40.254Z,23.25
2022-10-17T16:03:42.775Z,22.60
2022-10-17T16:08:46.299Z,35.70
2022-10-17T16:13:55.056Z,199.60
2022-10-17T16:18:57.612Z,185.70
2022-10-17T16:24:00.634Z,224.67
2022-10-17T16:29:04.807Z,193.17
2022-10-17T16:34:08.927Z,219.33
2022-10-17T16:39:11.522Z,260.90
2022-10-17T16:44:14.643Z,333.80
2022-10-17T16:49:18.651Z,406.63
2022-10-17T16:54:20.999Z,460.70
2022-10-17T16:59:24.041Z,462.67
2022-10-17T17:04:26.438Z,331.40
2022-10-17T17:09:28.877Z,233.90
2022-10-17T17:14:31.230Z,226.07
2022-10-17T17:19:33.570Z,220.60
2022-10-17T17:24:35.988Z,137.13
2022-10-17T17:29:38.556Z,95.67
2022-10-17T17:34:40.867Z,123.83
2022-10-17T17:39:43.271Z,101.63
2022-10-17T17:44:45.701Z,90.20
2022-10-17T17:49:48.553Z,87.50
2022-10-17T17:54:50.883Z,77.93
2022-10-17T17:59:53.533Z,69.97
2022-10-17T18:04:55.872Z,67.43
2022-10-17T18:09:58.265Z,65.63
2022-10-17T18:15:02.110Z,69.57
2022-10-17T18:20:05.920Z,70.33
2022-10-17T18:25:08.518Z,76.57
2022-10-17T18:30:11.477Z,85.60
2022-10-17T18:35:13.809Z,97.37
2022-10-17T18:40:16.252Z,105.93
2022-10-17T18:45:18.608Z,125.40
2022-10-17T18:50:22.297Z,152.53
2022-10-17T18:55:25.066Z,208.23
2022-10-17T19:00:27.371Z,137.33
2022-10-17T19:05:29.708Z,148.80
2022-10-17T19:10:35.406Z,146.63
2022-10-17T19:15:38.932Z,165.13
2022-10-17T19:20:41.278Z,176.30
2022-10-17T19:25:43.620Z,172.73
2022-10-17T19:30:45.918Z,173.43
2022-10-17T19:36:13.849Z,161.70
2022-10-17T19:41:16.892Z,148.90
2022-10-17T19:46:21.782Z,160.77
2022-10-17T19:51:25.722Z,176.80
2022-10-17T19:56:33.198Z,176.93
2022-10-17T20:01:38.904Z,165.37
2022-10-17T20:06:41.946Z,146.40
2022-10-17T20:11:44.997Z,153.03
2022-10-17T20:16:52.023Z,136.03
2022-10-17T20:21:54.343Z,114.37
2022-10-17T20:26:56.726Z,111.57
2022-10-17T20:31:59.124Z,111.53
2022-10-17T20:37:02.000Z,113.10
2022-10-17T20:42:04.394Z,100.67
2022-10-17T20:47:15.932Z,88.40
2022-10-17T20:52:18.987Z,83.40
2022-10-17T20:57:21.373Z,92.80
2022-10-17T21:02:23.708Z,81.67
2022-10-17T21:07:26.079Z,79.90
2022-10-17T21:12:36.624Z,87.57
2022-10-17T21:17:45.336Z,80.60
2022-10-17T21:22:47.717Z,67.53
2022-10-17T21:27:52.673Z,74.07
2022-10-17T21:32:55.559Z,71.67
2022-10-17T21:37:58.085Z,69.90
2022-10-17T21:43:00.449Z,66.70
2022-10-17T21:48:12.508Z,61.53
2022-10-17T21:53:15.345Z,66.10
2022-10-17T21:58:17.698Z,64.53
2022-10-17T22:03:20.036Z,64.40
2022-10-17T22:08:22.363Z,57.60
2022-10-17T22:13:24.832Z,53.60
2022-10-17T22:18:27.637Z,52.93
2022-10-17T22:23:30.040Z,44.33
2022-10-17T22:28:32.879Z,48.13
2022-10-17T22:33:37.202Z,45.43
2022-10-17T22:38:39.526Z,46.77
2022-10-17T22:43:41.849Z,53.23
2022-10-17T22:48:44.353Z,50.57
2022-10-17T22:53:46.718Z,50.07
2022-10-17T22:58:49.625Z,50.67
2022-10-17T23:03:53.150Z,65.03
2022-10-17T23:08:55.622Z,75.77
2022-10-17T23:13:58.024Z,68.17
2022-10-17T23:19:00.811Z,60.83
2022-10-17T23:24:03.187Z,58.57
2022-10-17T23:29:05.578Z,55.80
2022-10-17T23:34:08.038Z,52.63
2022-10-17T23:39:11.226Z,57.73
2022-10-17T23:44:13.658Z,55.73
2022-10-17T23:49:16.003Z,47.97
2022-10-17T23:54:18.688Z,46.87
2022-10-17T23:59:21.063Z,57.60
